Time;durP1;ratioP1;P1;durP2;ratioP2;P2;SDS_P1;SDS_P2;PMS_P1;PMS_P2;Temp;Humidity;BMP_temperature;BMP_pressure;BME280_temperature;BME280_humidity;BME280_pressure;Samples;Min_cycle;Max_cycle;Signal;HPM_P1;HPM_P2
2023/06/22 00:01:49;;;;;;;30.50;27.60;;;21.90;99.90;;;;;;4940465;28;20251;-72
2023/06/22 00:04:38;;;;;;;28.90;25.90;;;21.80;99.90;;;;;;4934989;28;20224;-71
2023/06/22 00:07:27;;;;;;;29.92;26.92;;;21.80;99.90;;;;;;4944986;28;20318;-73
2023/06/22 00:10:16;;;;;;;30.48;27.20;;;21.80;99.90;;;;;;4945262;28;20263;-73
2023/06/22 00:13:07;;;;;;;31.92;28.60;;;21.70;99.90;;;;;;4931181;28;20292;-72
2023/06/22 00:15:56;;;;;;;29.33;26.45;;;21.70;99.90;;;;;;4920839;29;20260;-72
2023/06/22 00:18:47;;;;;;;31.27;28.15;;;21.70;99.90;;;;;;4917965;28;20230;-71
2023/06/22 00:21:37;;;;;;;30.98;27.88;;;21.70;99.90;;;;;;4936635;28;20299;-71
2023/06/22 00:24:26;;;;;;;31.63;28.65;;;21.70;99.90;;;;;;4936740;28;20231;-71
2023/06/22 00:27:16;;;;;;;30.80;27.70;;;21.70;99.90;;;;;;4935066;28;20264;-71
2023/06/22 00:30:07;;;;;;;30.45;27.25;;;21.60;99.90;;;;;;4935021;28;20303;-72
2023/06/22 00:32:56;;;;;;;29.70;26.65;;;21.60;99.90;;;;;;4933649;28;20229;-72
2023/06/22 00:35:46;;;;;;;32.72;28.75;;;21.60;99.90;;;;;;4928566;28;20234;-71
2023/06/22 00:38:35;;;;;;;31.13;28.08;;;21.60;99.90;;;;;;4940643;28;20360;-72
2023/06/22 00:41:23;;;;;;;31.15;27.20;;;21.60;99.90;;;;;;4938258;28;20265;-73
2023/06/22 00:44:12;;;;;;;31.08;28.00;;;21.50;99.90;;;;;;4957275;28;20232;-72
2023/06/22 00:47:03;;;;;;;31.25;28.25;;;21.50;99.90;;;;;;4956553;28;20251;-73
2023/06/22 00:49:54;;;;;;;29.23;26.42;;;21.50;99.90;;;;;;4942927;28;20549;-73
2023/06/22 00:52:44;;;;;;;30.15;27.10;;;21.60;99.90;;;;;;4955603;28;20228;-72
2023/06/22 00:55:35;;;;;;;31.20;28.10;;;21.60;99.90;;;;;;4945605;28;20220;-73
2023/06/22 00:58:25;;;;;;;29.77;26.92;;;21.50;99.90;;;;;;4950320;28;20367;-72
2023/06/22 01:01:17;;;;;;;31.88;28.67;;;21.50;99.90;;;;;;4961114;28;20235;-72
2023/06/22 01:04:07;;;;;;;31.25;28.10;;;21.50;99.90;;;;;;4956232;28;20227;-71
2023/06/22 01:07:06;;;;;;;29.67;26.90;;;21.50;99.90;;;;;;4961553;28;20934;-71
2023/06/22 01:10:08;;;;;;;31.52;28.52;;;21.50;99.90;;;;;;4947074;28;20224;-73
2023/06/22 01:13:06;;;;;;;31.42;28.17;;;21.50;99.90;;;;;;4959970;28;20220;-73
2023/06/22 01:15:59;;;;;;;30.15;27.30;;;21.50;99.90;;;;;;4944015;28;20851;-71
2023/06/22 01:18:51;;;;;;;31.05;27.85;;;21.50;99.90;;;;;;4949673;28;20282;-71
2023/06/22 01:21:43;;;;;;;30.88;27.55;;;21.50;99.90;;;;;;4945665;28;20216;-70
2023/06/22 01:24:42;;;;;;;30.73;27.83;;;21.50;99.90;;;;;;4942162;28;20225;-72
2023/06/22 01:27:41;;;;;;;30.65;27.40;;;21.50;99.90;;;;;;4960975;28;20219;-72
2023/06/22 01:30:33;;;;;;;30.38;27.30;;;21.50;99.90;;;;;;4944754;28;20227;-69
2023/06/22 01:33:25;;;;;;;30.67;27.45;;;21.50;99.90;;;;;;4959851;28;20228;-71
2023/06/22 01:36:17;;;;;;;31.40;28.20;;;21.40;99.90;;;;;;4961131;28;20240;-72
2023/06/22 01:39:08;;;;;;;31.23;27.98;;;21.40;99.90;;;;;;4957196;28;20228;-70
2023/06/22 01:41:58;;;;;;;31.30;28.30;;;21.40;99.90;;;;;;4959235;28;20734;-71
2023/06/22 01:44:49;;;;;;;30.75;27.67;;;21.40;99.90;;;;;;4956340;28;20239;-70
2023/06/22 01:47:40;;;;;;;31.23;28.13;;;21.40;99.90;;;;;;4959349;28;20224;-70
2023/06/22 01:50:30;;;;;;;32.67;29.30;;;21.40;99.90;;;;;;4957301;28;20242;-71
2023/06/22 01:53:21;;;;;;;32.42;29.15;;;21.40;99.90;;;;;;4955677;28;20248;-70
2023/06/22 01:56:13;;;;;;;31.08;28.05;;;21.30;99.90;;;;;;4955041;28;21733;-70
2023/06/22 01:59:10;;;;;;;33.55;30.15;;;21.20;99.90;;;;;;4956462;28;20220;-73
2023/06/22 02:02:03;;;;;;;31.92;28.65;;;21.30;99.90;;;;;;4944836;28;20228;-71
2023/06/22 02:04:59;;;;;;;31.58;28.40;;;21.30;99.90;;;;;;4953493;28;20789;-72
2023/06/22 02:07:58;;;;;;;32.53;29.38;;;21.20;99.90;;;;;;4960158;28;20236;-71
2023/06/22 02:10:49;;;;;;;32.63;29.20;;;21.20;99.90;;;;;;4949407;28;20759;-69
2023/06/22 02:13:42;;;;;;;33.17;29.88;;;21.20;99.90;;;;;;4948680;28;20239;-69
2023/06/22 02:16:32;;;;;;;33.30;29.95;;;21.20;99.90;;;;;;4963006;28;20234;-70
2023/06/22 02:19:24;;;;;;;33.78;30.38;;;21.20;99.90;;;;;;4948542;28;20227;-69
2023/06/22 02:22:16;;;;;;;34.80;31.40;;;21.10;99.90;;;;;;4963058;28;20231;-71
2023/06/22 02:25:05;;;;;;;34.63;31.23;;;21.20;99.90;;;;;;4958110;28;20231;-67
2023/06/22 02:27:54;;;;;;;35.05;31.65;;;21.20;99.90;;;;;;4959024;28;20298;-69
2023/06/22 02:30:43;;;;;;;37.08;33.25;;;21.10;99.90;;;;;;4956567;28;20860;-71
2023/06/22 02:33:32;;;;;;;38.13;34.28;;;21.20;99.90;;;;;;4961756;28;20228;-72
2023/06/22 02:36:22;;;;;;;36.72;32.97;;;21.20;99.90;;;;;;4966154;28;20664;-71
2023/06/22 02:39:12;;;;;;;38.92;34.83;;;21.20;99.90;;;;;;4957479;28;20734;-71
2023/06/22 02:42:02;;;;;;;39.53;35.40;;;21.20;99.90;;;;;;4940141;28;20717;-69
2023/06/22 02:44:51;;;;;;;41.28;36.80;;;21.20;99.90;;;;;;4940414;28;20596;-69
2023/06/22 02:47:41;;;;;;;43.33;38.75;;;21.10;99.90;;;;;;4925420;29;20235;-69
2023/06/22 02:50:30;;;;;;;43.03;38.67;;;21.20;99.90;;;;;;4930739;29;20254;-69
2023/06/22 02:53:20;;;;;;;44.65;39.70;;;21.20;99.90;;;;;;4940389;28;20228;-71
2023/06/22 02:56:11;;;;;;;45.60;40.83;;;21.20;99.90;;;;;;4920939;29;20233;-72
2023/06/22 02:59:01;;;;;;;44.83;40.25;;;21.30;99.90;;;;;;4924175;29;20224;-69
2023/06/22 03:01:55;;;;;;;44.65;39.88;;;21.30;99.90;;;;;;4938978;28;20664;-69
2023/06/22 03:04:53;;;;;;;46.70;40.25;;;21.30;99.90;;;;;;4928005;29;20350;-70
2023/06/22 03:07:42;;;;;;;45.55;40.83;;;21.30;99.90;;;;;;4926173;29;20233;-72
2023/06/22 03:10:31;;;;;;;47.40;42.17;;;21.30;99.90;;;;;;4927914;29;20236;-69
2023/06/22 03:13:22;;;;;;;48.13;43.08;;;21.40;99.90;;;;;;4927504;28;20232;-72
2023/06/22 03:16:11;;;;;;;49.90;42.95;;;21.30;99.90;;;;;;4929221;29;20228;-69
2023/06/22 03:19:00;;;;;;;50.33;42.83;;;21.40;99.90;;;;;;4937173;28;20312;-69
2023/06/22 03:21:49;;;;;;;48.60;42.38;;;21.40;99.90;;;;;;4916545;29;20225;-71
2023/06/22 03:24:39;;;;;;;47.75;42.55;;;21.40;99.90;;;;;;4926956;28;20300;-70
2023/06/22 03:27:27;;;;;;;49.80;43.63;;;21.40;99.90;;;;;;4929114;29;20220;-72
2023/06/22 03:30:18;;;;;;;47.67;42.10;;;21.30;99.90;;;;;;4927194;28;20237;-72
2023/06/22 03:33:07;;;;;;;47.72;40.95;;;21.40;99.90;;;;;;4922545;29;20707;-69
2023/06/22 03:35:56;;;;;;;49.58;41.78;;;21.40;99.90;;;;;;4916466;29;20244;-71
2023/06/22 03:38:45;;;;;;;48.78;40.95;;;21.40;99.90;;;;;;4932340;29;20299;-71
2023/06/22 03:41:34;;;;;;;46.47;41.45;;;21.30;99.90;;;;;;4933286;28;20260;-71
2023/06/22 03:44:23;;;;;;;46.10;39.80;;;21.40;99.90;;;;;;4934591;28;20220;-71
2023/06/22 03:47:14;;;;;;;44.78;38.10;;;21.40;99.90;;;;;;4945579;28;20239;-70
2023/06/22 03:50:05;;;;;;;44.60;39.83;;;21.40;99.90;;;;;;4937480;28;20225;-69
2023/06/22 03:52:54;;;;;;;44.30;39.63;;;21.50;99.90;;;;;;4947294;28;20232;-71
2023/06/22 03:55:50;;;;;;;42.83;37.85;;;21.60;99.90;;;;;;4943580;28;20228;-69
2023/06/22 03:58:42;;;;;;;41.22;36.90;;;21.60;99.90;;;;;;4929216;28;20224;-69
2023/06/22 04:01:32;;;;;;;42.65;37.47;;;21.70;99.90;;;;;;4937685;28;20229;-69
2023/06/22 04:04:23;;;;;;;42.30;37.70;;;21.70;99.90;;;;;;4928687;28;20221;-69
2023/06/22 04:07:12;;;;;;;41.67;37.05;;;21.80;99.90;;;;;;4952406;28;20251;-69
2023/06/22 04:10:01;;;;;;;45.75;36.83;;;21.80;99.90;;;;;;4946640;28;20850;-71
2023/06/22 04:12:50;;;;;;;41.35;37.05;;;21.80;99.90;;;;;;4942983;28;20715;-72
2023/06/22 04:15:39;;;;;;;38.45;34.35;;;21.90;99.90;;;;;;4938903;28;20251;-70
2023/06/22 04:18:28;;;;;;;39.20;35.00;;;22.00;99.90;;;;;;4935686;28;20224;-68
2023/06/22 04:21:20;;;;;;;39.00;34.75;;;22.00;99.90;;;;;;4944146;28;20236;-71
2023/06/22 04:24:09;;;;;;;40.75;34.17;;;22.00;99.90;;;;;;4935828;28;20709;-71
2023/06/22 04:27:00;;;;;;;38.55;34.40;;;22.10;99.90;;;;;;4940385;28;20724;-71
2023/06/22 04:29:51;;;;;;;37.38;33.35;;;22.10;99.90;;;;;;4942445;28;20240;-70
2023/06/22 04:32:42;;;;;;;37.47;33.65;;;22.20;99.90;;;;;;4925212;28;20251;-70
2023/06/22 04:35:31;;;;;;;39.08;33.97;;;22.30;99.90;;;;;;4941766;28;20226;-69
2023/06/22 04:38:22;;;;;;;39.10;34.83;;;22.40;99.90;;;;;;4960563;28;20227;-68
2023/06/22 04:41:23;;;;;;;32.80;29.23;;;22.50;99.90;;;;;;4953953;28;20231;-69
2023/06/22 04:44:13;;;;;;;36.15;32.08;;;22.40;99.90;;;;;;4964001;28;20449;-69
2023/06/22 04:47:03;;;;;;;36.03;32.22;;;22.40;99.90;;;;;;4955788;28;20247;-71
2023/06/22 04:49:52;;;;;;;35.47;31.70;;;22.40;99.90;;;;;;4965750;28;20238;-70
2023/06/22 04:52:41;;;;;;;37.53;33.08;;;22.30;99.90;;;;;;4961434;28;20242;-71
2023/06/22 04:55:32;;;;;;;36.70;31.95;;;22.40;99.90;;;;;;4953784;28;20231;-71
2023/06/22 04:58:21;;;;;;;34.60;30.92;;;22.30;99.90;;;;;;4965242;28;20226;-72
2023/06/22 05:01:10;;;;;;;36.60;31.55;;;22.40;99.90;;;;;;4967213;28;20219;-71
2023/06/22 05:04:00;;;;;;;35.35;31.55;;;22.50;99.90;;;;;;4960307;28;20229;-71
2023/06/22 05:06:51;;;;;;;36.80;31.40;;;22.50;99.90;;;;;;4972878;28;20306;-70
2023/06/22 05:09:40;;;;;;;35.63;31.75;;;22.60;99.90;;;;;;4966618;28;20250;-70
2023/06/22 05:12:34;;;;;;;34.85;31.38;;;22.60;99.90;;;;;;4955708;28;20321;-70
2023/06/22 05:15:26;;;;;;;35.35;31.75;;;22.50;99.90;;;;;;4951129;28;20235;-69
2023/06/22 05:18:16;;;;;;;37.15;31.80;;;22.50;99.90;;;;;;4949675;28;20235;-71
2023/06/22 05:21:05;;;;;;;34.05;30.45;;;22.50;99.90;;;;;;4953125;28;20251;-71
2023/06/22 05:23:56;;;;;;;34.20;29.75;;;22.60;99.90;;;;;;4957152;28;20242;-70
2023/06/22 05:26:45;;;;;;;34.97;31.25;;;22.50;99.90;;;;;;4952688;28;20304;-70
2023/06/22 05:29:35;;;;;;;34.10;30.42;;;22.60;99.90;;;;;;4957228;28;20883;-70
2023/06/22 05:32:24;;;;;;;34.78;31.17;;;22.60;99.90;;;;;;4945375;28;20657;-70
2023/06/22 05:35:13;;;;;;;33.35;29.95;;;22.60;99.90;;;;;;4943535;28;20283;-72
2023/06/22 05:38:02;;;;;;;33.15;29.55;;;22.60;99.90;;;;;;4943086;28;20229;-70
2023/06/22 05:40:51;;;;;;;36.13;30.45;;;22.70;99.90;;;;;;4943166;28;20315;-72
2023/06/22 05:43:40;;;;;;;34.70;30.98;;;22.70;99.90;;;;;;4959792;28;20270;-67
2023/06/22 05:46:30;;;;;;;33.90;30.25;;;22.80;99.90;;;;;;4958527;28;20230;-70
2023/06/22 05:49:21;;;;;;;34.92;29.15;;;22.70;99.90;;;;;;4971654;28;20226;-69
2023/06/22 05:52:11;;;;;;;33.13;29.45;;;22.70;99.90;;;;;;4965816;28;20234;-70
2023/06/22 05:55:00;;;;;;;35.03;30.00;;;22.70;99.90;;;;;;4974724;28;20231;-68
2023/06/22 05:57:49;;;;;;;33.80;29.45;;;22.60;99.90;;;;;;4954159;28;20220;-69
2023/06/22 06:00:38;;;;;;;35.40;28.15;;;22.70;99.90;;;;;;4966714;28;20269;-68
2023/06/22 06:03:29;;;;;;;31.48;27.70;;;22.60;99.90;;;;;;4944521;28;20239;-69
2023/06/22 06:06:20;;;;;;;29.35;26.45;;;22.50;99.90;;;;;;4955706;28;20225;-71
2023/06/22 06:09:08;;;;;;;29.80;25.63;;;22.60;99.90;;;;;;4946534;28;20231;-70
2023/06/22 06:11:57;;;;;;;28.77;25.83;;;22.70;99.90;;;;;;4949121;28;20315;-69
2023/06/22 06:14:47;;;;;;;28.00;24.98;;;22.60;99.90;;;;;;4947198;28;20232;-70
2023/06/22 06:17:35;;;;;;;31.00;25.50;;;22.70;99.90;;;;;;4940721;28;20227;-68
2023/06/22 06:20:27;;;;;;;27.42;24.45;;;22.80;99.90;;;;;;4939277;28;20620;-71
2023/06/22 06:23:18;;;;;;;29.05;25.58;;;22.70;99.90;;;;;;4940739;28;20315;-70
2023/06/22 06:26:08;;;;;;;27.30;24.50;;;22.80;99.90;;;;;;4943437;28;20612;-72
2023/06/22 06:28:58;;;;;;;28.50;25.08;;;22.80;99.90;;;;;;4944475;28;20239;-72
2023/06/22 06:31:47;;;;;;;26.92;24.08;;;22.80;99.90;;;;;;4955497;28;20271;-70
2023/06/22 06:34:37;;;;;;;30.38;26.38;;;22.90;99.90;;;;;;4952558;28;20754;-68
2023/06/22 06:37:27;;;;;;;26.75;23.95;;;23.00;99.90;;;;;;4951422;28;20232;-69
2023/06/22 06:40:17;;;;;;;26.65;23.85;;;23.10;99.90;;;;;;4961470;28;20956;-68
2023/06/22 06:43:06;;;;;;;25.20;22.52;;;23.10;99.90;;;;;;4942724;28;20221;-69
2023/06/22 06:45:55;;;;;;;26.70;22.70;;;23.20;99.90;;;;;;4947167;28;20224;-70
2023/06/22 06:48:44;;;;;;;23.60;21.13;;;23.40;99.90;;;;;;4947632;28;20227;-70
2023/06/22 06:51:33;;;;;;;23.70;21.25;;;23.50;99.90;;;;;;4945037;28;20738;-71
2023/06/22 06:54:24;;;;;;;23.98;21.58;;;23.90;99.90;;;;;;4944119;28;20760;-69
2023/06/22 06:57:15;;;;;;;21.42;19.17;;;24.20;99.90;;;;;;4945758;28;20366;-70
2023/06/22 07:00:09;;;;;;;22.88;18.98;;;24.80;99.90;;;;;;4947753;28;20251;-71
2023/06/22 07:02:58;;;;;;;22.35;19.95;;;24.60;99.90;;;;;;4944995;28;20228;-72
2023/06/22 07:05:47;;;;;;;21.70;19.38;;;24.70;99.90;;;;;;4948130;28;20236;-72
2023/06/22 07:08:36;;;;;;;21.83;18.60;;;24.60;99.90;;;;;;4943003;28;20228;-73
2023/06/22 07:11:26;;;;;;;22.00;18.50;;;24.60;99.90;;;;;;4951725;28;20312;-71
2023/06/22 07:14:17;;;;;;;23.75;19.65;;;24.50;99.90;;;;;;4953862;28;20232;-72
2023/06/22 07:17:06;;;;;;;21.20;18.90;;;24.40;99.90;;;;;;4932692;28;20552;-73
2023/06/22 07:19:55;;;;;;;24.67;20.15;;;24.50;99.90;;;;;;4947568;28;20303;-71
2023/06/22 07:22:46;;;;;;;20.10;17.85;;;24.80;99.90;;;;;;4944072;28;20602;-71
2023/06/22 07:25:36;;;;;;;20.58;17.67;;;25.70;99.90;;;;;;4943202;28;20627;-75
2023/06/22 07:28:27;;;;;;;19.10;17.20;;;25.20;99.90;;;;;;4948679;28;20230;-74
2023/06/22 07:31:18;;;;;;;26.40;17.65;;;24.90;99.90;;;;;;4943912;28;20227;-74
2023/06/22 07:34:07;;;;;;;16.25;14.73;;;25.60;99.90;;;;;;4944788;28;20220;-74
2023/06/22 07:36:56;;;;;;;16.35;13.30;;;26.00;99.90;;;;;;4943904;28;20224;-75
2023/06/22 07:39:45;;;;;;;13.90;12.13;;;26.90;99.90;;;;;;4931623;29;20244;-74
2023/06/22 07:42:34;;;;;;;13.90;11.30;;;26.80;99.90;;;;;;4933137;29;20302;-75
2023/06/22 07:45:25;;;;;;;22.08;17.45;;;26.80;99.90;;;;;;4944430;28;20236;-75
2023/06/22 07:48:14;;;;;;;12.18;11.00;;;27.60;99.90;;;;;;4949757;28;20232;-74
2023/06/22 07:51:03;;;;;;;15.15;9.95;;;27.60;99.90;;;;;;4948211;28;20797;-75
2023/06/22 07:53:52;;;;;;;15.32;10.55;;;27.50;99.90;;;;;;4943790;28;20236;-75
2023/06/22 07:56:45;;;;;;;11.48;9.43;;;28.40;99.90;;;;;;4928572;29;20919;-75
2023/06/22 07:59:34;;;;;;;10.73;9.63;;;28.00;99.90;;;;;;4919419;29;20596;-75
2023/06/22 08:02:24;;;;;;;17.38;10.68;;;28.80;99.90;;;;;;4923440;29;20224;-75
2023/06/22 08:05:18;;;;;;;9.85;8.55;;;28.30;99.90;;;;;;4944279;28;20243;-75
2023/06/22 08:08:10;;;;;;;11.90;8.00;;;28.80;99.90;;;;;;4945934;28;20255;-76
2023/06/22 08:10:59;;;;;;;10.77;7.40;;;29.30;99.90;;;;;;4939534;28;20224;-74
2023/06/22 08:13:48;;;;;;;9.70;8.65;;;29.30;99.90;;;;;;4927548;28;20228;-75
2023/06/22 08:16:37;;;;;;;8.45;7.60;;;29.20;99.90;;;;;;4923482;28;20243;-75
2023/06/22 08:19:27;;;;;;;11.77;8.25;;;29.20;99.90;;;;;;4934991;28;20243;-75
2023/06/22 08:22:18;;;;;;;10.15;7.32;;;29.70;99.90;;;;;;4924332;28;20283;-76
2023/06/22 08:25:09;;;;;;;8.80;7.63;;;30.10;99.90;;;;;;4930800;28;20409;-76
2023/06/22 08:27:58;;;;;;;7.72;6.97;;;30.50;99.90;;;;;;4929980;28;20228;-75
2023/06/22 08:30:48;;;;;;;10.13;7.32;;;30.70;99.90;;;;;;4928523;28;20231;-76
2023/06/22 08:33:38;;;;;;;8.98;6.57;;;31.10;99.90;;;;;;4925845;28;20414;-76
2023/06/22 08:36:41;;;;;;;10.05;6.78;;;31.30;99.90;;;;;;4932883;28;20224;-75
2023/06/22 08:39:30;;;;;;;9.45;6.43;;;31.40;99.90;;;;;;4942477;28;20423;-75
2023/06/22 08:42:23;;;;;;;7.90;6.47;;;31.30;99.90;;;;;;4953418;28;20383;-75
2023/06/22 08:45:12;;;;;;;8.05;6.22;;;31.40;99.90;;;;;;4970031;28;20594;-76
2023/06/22 08:48:02;;;;;;;9.90;6.20;;;31.50;99.90;;;;;;4965157;28;20707;-76
2023/06/22 08:50:50;;;;;;;7.15;6.45;;;31.30;99.90;;;;;;4963924;28;20223;-74
2023/06/22 08:53:41;;;;;;;7.53;6.38;;;31.60;99.90;;;;;;4961389;28;20222;-74
2023/06/22 08:56:34;;;;;;;6.88;5.70;;;31.90;99.90;;;;;;4961963;28;20262;-75
2023/06/22 08:59:23;;;;;;;10.05;6.57;;;32.20;99.90;;;;;;4956304;28;20324;-74
2023/06/22 09:02:11;;;;;;;9.20;6.10;;;32.50;99.90;;;;;;4939976;28;20302;-74
2023/06/22 09:05:01;;;;;;;8.75;6.13;;;32.60;99.90;;;;;;4938260;28;20235;-75
2023/06/22 09:07:50;;;;;;;6.90;5.43;;;32.50;99.90;;;;;;4944141;28;20242;-75
2023/06/22 09:10:40;;;;;;;7.95;5.40;;;32.60;99.90;;;;;;4960050;28;20226;-75
2023/06/22 09:13:30;;;;;;;6.78;5.28;;;32.60;99.90;;;;;;4956306;28;20305;-75
2023/06/22 09:16:19;;;;;;;6.38;5.20;;;32.70;99.90;;;;;;4961307;28;20614;-79
2023/06/22 09:19:08;;;;;;;12.00;5.32;;;32.90;99.90;;;;;;4961662;28;20227;-76
2023/06/22 09:22:01;;;;;;;5.45;4.47;;;33.00;99.90;;;;;;4960708;28;20223;-75
2023/06/22 09:24:51;;;;;;;6.38;4.50;;;33.00;99.90;;;;;;4962666;28;20237;-75
2023/06/22 09:27:42;;;;;;;4.63;4.20;;;32.90;99.90;;;;;;4963991;28;20242;-76
2023/06/22 09:30:31;;;;;;;4.65;4.05;;;33.00;99.90;;;;;;4958263;28;20232;-75
2023/06/22 09:33:20;;;;;;;6.22;4.80;;;33.00;99.90;;;;;;4947937;28;20235;-75
2023/06/22 09:36:09;;;;;;;6.95;4.00;;;33.40;99.90;;;;;;4946562;28;20733;-76
2023/06/22 09:38:58;;;;;;;6.05;4.45;;;33.80;99.70;;;;;;4951522;28;20319;-74
2023/06/22 09:41:47;;;;;;;6.63;4.03;;;34.20;98.00;;;;;;4947965;28;20231;-74
2023/06/22 09:44:38;;;;;;;8.05;4.18;;;34.60;98.10;;;;;;4947793;28;20227;-75
2023/06/22 09:47:27;;;;;;;6.25;4.20;;;34.70;97.40;;;;;;4944863;28;20242;-73
2023/06/22 09:50:17;;;;;;;5.75;4.22;;;35.20;97.10;;;;;;4965802;28;20235;-74
2023/06/22 09:53:08;;;;;;;7.03;4.78;;;35.80;96.10;;;;;;4967258;28;20270;-74
2023/06/22 09:55:57;;;;;;;11.05;4.20;;;37.10;95.30;;;;;;4966262;28;20229;-75
2023/06/22 09:58:50;;;;;;;4.53;4.10;;;37.70;93.80;;;;;;4946877;28;20276;-75
2023/06/22 10:01:41;;;;;;;5.25;4.20;;;38.20;87.10;;;;;;4961030;28;20270;-74
2023/06/22 10:04:30;;;;;;;9.65;4.00;;;38.80;84.20;;;;;;4969098;28;20757;-76
2023/06/22 10:07:21;;;;;;;7.97;3.35;;;39.80;88.20;;;;;;4959642;28;20986;-75
2023/06/22 10:10:12;;;;;;;3.90;3.40;;;39.60;79.30;;;;;;4973011;28;20242;-75
2023/06/22 10:13:09;;;;;;;6.45;3.38;;;39.80;80.10;;;;;;4958649;28;20230;-76
2023/06/22 10:15:58;;;;;;;3.95;3.30;;;39.40;70.00;;;;;;4947200;28;20226;-76
2023/06/22 10:18:50;;;;;;;8.20;3.92;;;39.70;73.80;;;;;;4962591;28;20231;-75
2023/06/22 10:21:39;;;;;;;7.03;4.00;;;40.20;73.50;;;;;;4962515;28;20305;-75
2023/06/22 10:24:28;;;;;;;7.25;3.42;;;40.70;74.40;;;;;;4960562;28;20307;-73
2023/06/22 10:27:17;;;;;;;5.57;3.53;;;41.50;71.70;;;;;;4953401;28;20218;-75
2023/06/22 10:30:08;;;;;;;5.80;4.25;;;42.00;72.00;;;;;;4962323;28;20249;-76
2023/06/22 10:32:59;;;;;;;5.72;4.03;;;42.00;70.90;;;;;;4964626;28;20278;-76
2023/06/22 10:35:50;;;;;;;6.25;3.50;;;42.60;70.90;;;;;;4966004;28;20555;-76
2023/06/22 10:38:39;;;;;;;5.20;4.22;;;42.60;69.40;;;;;;4962626;28;20262;-74
2023/06/22 10:41:29;;;;;;;4.45;3.65;;;43.00;64.60;;;;;;4938285;28;20220;-75
2023/06/22 10:44:20;;;;;;;6.43;3.95;;;42.70;65.70;;;;;;4943657;28;20247;-75
2023/06/22 10:47:09;;;;;;;4.82;3.70;;;42.90;66.80;;;;;;4953979;28;20603;-75
2023/06/22 10:49:58;;;;;;;5.22;3.80;;;43.40;62.00;;;;;;4954079;28;20598;-74
2023/06/22 10:52:50;;;;;;;5.93;3.80;;;42.30;67.00;;;;;;4943842;28;20243;-75
2023/06/22 10:55:41;;;;;;;4.22;3.30;;;43.10;63.70;;;;;;4949766;28;20769;-75
2023/06/22 10:58:45;;;;;;;15.32;4.22;;;43.10;60.00;;;;;;4947184;28;20255;-75
2023/06/22 11:01:34;;;;;;;8.35;4.32;;;43.40;63.20;;;;;;4942714;28;20587;-75
2023/06/22 11:04:43;;;;;;;5.72;4.13;;;;;;;;;;4945005;28;20227;-72
2023/06/22 11:07:33;;;;;;;8.63;3.78;;;44.50;59.10;;;;;;4949893;28;20358;-75
2023/06/22 11:10:24;;;;;;;7.47;3.80;;;45.30;59.70;;;;;;4950201;28;20231;-74
2023/06/22 11:13:13;;;;;;;7.03;4.13;;;45.50;57.70;;;;;;4950878;28;20223;-75
2023/06/22 11:16:03;;;;;;;8.10;4.00;;;45.00;58.00;;;;;;4945063;28;20227;-76
2023/06/22 11:18:52;;;;;;;7.68;3.58;;;45.00;57.90;;;;;;4952459;28;20224;-75
2023/06/22 11:21:41;;;;;;;5.22;3.92;;;44.40;57.30;;;;;;4929106;29;20311;-75
2023/06/22 11:24:31;;;;;;;4.88;3.55;;;44.40;56.00;;;;;;4923113;29;20223;-75
2023/06/22 11:27:23;;;;;;;7.40;3.80;;;45.00;57.10;;;;;;4929890;28;20219;-73
2023/06/22 11:30:13;;;;;;;6.53;3.33;;;46.20;54.10;;;;;;4939633;28;20370;-76
2023/06/22 11:33:03;;;;;;;5.13;3.88;;;47.00;53.50;;;;;;4933286;28;20708;-77
2023/06/22 11:35:52;;;;;;;9.25;4.20;;;47.50;53.30;;;;;;4927175;29;20389;-75
2023/06/22 11:38:41;;;;;;;5.15;4.00;;;48.10;52.30;;;;;;4924174;28;20232;-75
2023/06/22 11:41:32;;;;;;;9.70;4.47;;;48.40;51.30;;;;;;4947135;28;20388;-75
2023/06/22 11:44:23;;;;;;;4.05;3.63;;;48.10;52.30;;;;;;4965762;28;20238;-75
2023/06/22 11:47:12;;;;;;;6.95;3.50;;;48.10;48.70;;;;;;4966410;28;20263;-75
2023/06/22 11:50:01;;;;;;;7.30;4.45;;;48.60;48.30;;;;;;4959016;28;20227;-77
2023/06/22 11:52:50;;;;;;;4.53;3.85;;;49.10;49.20;;;;;;4959736;28;20576;-72
2023/06/22 11:55:39;;;;;;;7.72;4.10;;;49.40;48.20;;;;;;4960595;28;20286;-72
2023/06/22 11:58:29;;;;;;;4.07;3.70;;;49.40;44.80;;;;;;4962779;28;20223;-74
2023/06/22 12:01:21;;;;;;;5.32;3.90;;;50.50;46.10;;;;;;4962897;28;20667;-74
2023/06/22 12:04:11;;;;;;;7.07;4.00;;;50.70;46.20;;;;;;4935780;28;20222;-74
2023/06/22 12:07:00;;;;;;;4.68;3.15;;;50.40;46.10;;;;;;4955398;28;20239;-75
2023/06/22 12:09:49;;;;;;;8.90;3.65;;;44.20;49.80;;;;;;4942659;28;20704;-73
2023/06/22 12:12:38;;;;;;;4.80;3.85;;;43.90;50.00;;;;;;4944990;28;20298;-71
2023/06/22 12:15:27;;;;;;;5.32;3.75;;;44.80;50.20;;;;;;4966585;28;20398;-73
2023/06/22 12:18:20;;;;;;;7.82;3.83;;;46.90;48.00;;;;;;4962187;28;20719;-71
2023/06/22 12:21:09;;;;;;;6.15;3.90;;;49.20;48.10;;;;;;4962855;28;20304;-71
2023/06/22 12:23:58;;;;;;;6.25;3.67;;;50.40;47.00;;;;;;4956020;28;20580;-73
2023/06/22 12:26:47;;;;;;;7.30;3.90;;;51.20;44.80;;;;;;4962847;28;20237;-70
2023/06/22 12:29:36;;;;;;;4.32;3.30;;;52.60;43.70;;;;;;4964783;28;20325;-71
2023/06/22 12:32:26;;;;;;;5.28;3.63;;;53.00;42.20;;;;;;4943086;28;20229;-71
2023/06/22 12:35:18;;;;;;;8.57;3.97;;;52.20;42.90;;;;;;4964454;28;20247;-72
2023/06/22 12:38:08;;;;;;;4.88;3.40;;;51.40;41.60;;;;;;4965748;28;20231;-72
2023/06/22 12:40:57;;;;;;;6.40;3.88;;;50.10;41.20;;;;;;4944596;28;20349;-73
2023/06/22 12:43:45;;;;;;;11.20;3.17;;;49.20;42.80;;;;;;4946945;28;20212;-70
2023/06/22 12:46:37;;;;;;;5.32;3.38;;;49.40;43.00;;;;;;4944455;28;20789;-72
2023/06/22 12:49:26;;;;;;;9.70;3.72;;;50.00;43.10;;;;;;4943572;28;20993;-69
2023/06/22 12:52:19;;;;;;;5.05;3.20;;;50.60;42.20;;;;;;4945425;28;20215;-69
2023/06/22 12:55:09;;;;;;;6.55;3.30;;;50.00;42.00;;;;;;4945175;28;20462;-70
2023/06/22 12:57:58;;;;;;;4.88;3.38;;;46.10;43.70;;;;;;4945205;28;20234;-71
2023/06/22 13:00:47;;;;;;;6.90;3.63;;;41.90;47.40;;;;;;4941986;28;20220;-71
2023/06/22 13:03:36;;;;;;;3.63;3.33;;;39.10;50.60;;;;;;4946864;28;20214;-71
2023/06/22 13:06:25;;;;;;;6.47;4.00;;;37.40;53.10;;;;;;4946802;28;20322;-69
2023/06/22 13:09:16;;;;;;;5.63;3.55;;;36.50;56.30;;;;;;4943362;29;20801;-73
2023/06/22 13:12:09;;;;;;;5.07;4.00;;;35.60;57.00;;;;;;4946964;28;20734;-69
2023/06/22 13:14:58;;;;;;;9.48;8.38;;;34.90;58.50;;;;;;4955341;28;21010;-72
2023/06/22 13:17:47;;;;;;;5.72;3.90;;;34.30;57.80;;;;;;4950548;28;20215;-69
2023/06/22 13:20:37;;;;;;;5.70;3.90;;;34.00;59.00;;;;;;4937750;28;20238;-70
2023/06/22 13:23:26;;;;;;;5.45;4.10;;;33.70;61.90;;;;;;4945337;28;20303;-69
2023/06/22 13:26:17;;;;;;;5.63;4.20;;;33.50;61.90;;;;;;4951033;28;20227;-68
2023/06/22 13:29:05;;;;;;;6.38;4.20;;;33.20;62.20;;;;;;4941744;28;20232;-70
2023/06/22 13:31:57;;;;;;;4.75;4.20;;;32.80;62.20;;;;;;4947704;28;20740;-77
2023/06/22 13:34:46;;;;;;;6.35;4.38;;;32.60;63.80;;;;;;4943281;28;20235;-75
2023/06/22 13:37:37;;;;;;;5.28;4.22;;;32.80;65.90;;;;;;4947841;28;20719;-76
2023/06/22 13:40:26;;;;;;;5.43;4.88;;;32.70;66.00;;;;;;4945110;28;20250;-76
2023/06/22 13:43:18;;;;;;;5.55;5.05;;;32.70;66.00;;;;;;4932603;28;20265;-76
2023/06/22 13:46:06;;;;;;;6.68;4.57;;;32.60;65.60;;;;;;4951094;28;20227;-76
2023/06/22 13:48:57;;;;;;;4.63;4.22;;;32.10;64.50;;;;;;4952528;28;20313;-75
2023/06/22 13:51:47;;;;;;;6.80;4.68;;;32.40;66.50;;;;;;4949427;28;20671;-76
2023/06/22 13:54:36;;;;;;;8.40;4.72;;;32.20;64.90;;;;;;4942840;28;20317;-75
2023/06/22 13:57:25;;;;;;;6.20;4.10;;;32.10;66.30;;;;;;4929315;28;20274;-76
2023/06/22 14:00:17;;;;;;;5.20;4.45;;;31.90;64.90;;;;;;4947228;28;20235;-75
2023/06/22 14:03:05;;;;;;;6.00;4.20;;;31.60;66.90;;;;;;4949768;28;20237;-76
2023/06/22 14:05:56;;;;;;;5.25;4.05;;;31.60;67.40;;;;;;4947401;28;20235;-75
2023/06/22 14:08:46;;;;;;;6.45;4.65;;;31.40;68.30;;;;;;4942390;28;20227;-76
2023/06/22 14:11:34;;;;;;;5.35;4.85;;;31.40;68.10;;;;;;4939380;29;20220;-76
2023/06/22 14:14:23;;;;;;;8.35;4.80;;;31.40;67.70;;;;;;4949315;28;20248;-75
2023/06/22 14:17:14;;;;;;;5.53;4.60;;;31.50;71.30;;;;;;4941858;28;20264;-76
2023/06/22 14:20:08;;;;;;;6.88;4.80;;;31.20;68.90;;;;;;4947294;28;20318;-76
2023/06/22 14:22:57;;;;;;;5.53;4.57;;;31.20;69.10;;;;;;4949119;28;20301;-75
2023/06/22 14:25:46;;;;;;;7.13;4.35;;;31.20;68.90;;;;;;4937167;28;20228;-75
2023/06/22 14:28:35;;;;;;;5.03;4.63;;;31.10;67.70;;;;;;4929788;29;20787;-75
2023/06/22 14:31:24;;;;;;;4.90;4.18;;;30.90;67.50;;;;;;4928439;28;20228;-74
2023/06/22 14:34:17;;;;;;;5.32;4.68;;;30.80;69.50;;;;;;4936293;28;20232;-75